sensor_id;sensor_type;location;lat;lon;timestamp;P1;durP1;ratioP1;P2;durP2;ratioP2
19891;SDS011;10108;50.142;8.724;2023-06-14T00:00:52;12.70;;;8.18;;
19891;SDS011;10108;50.142;8.724;2023-06-14T00:03:19;14.07;;;8.35;;
19891;SDS011;10108;50.142;8.724;2023-06-14T00:05:47;16.17;;;8.90;;
19891;SDS011;10108;50.142;8.724;2023-06-14T00:08:14;15.23;;;8.82;;
19891;SDS011;10108;50.142;8.724;2023-06-14T00:10:40;12.98;;;8.07;;
19891;SDS011;10108;50.142;8.724;2023-06-14T00:13:08;12.25;;;8.60;;
19891;SDS011;10108;50.142;8.724;2023-06-14T00:15:35;11.23;;;8.02;;
19891;SDS011;10108;50.142;8.724;2023-06-14T00:18:01;14.93;;;8.35;;
19891;SDS011;10108;50.142;8.724;2023-06-14T00:20:29;15.68;;;8.90;;
19891;SDS011;10108;50.142;8.724;2023-06-14T00:22:59;13.23;;;8.45;;
19891;SDS011;10108;50.142;8.724;2023-06-14T00:25:25;12.48;;;8.68;;
19891;SDS011;10108;50.142;8.724;2023-06-14T00:27:52;12.50;;;8.38;;
19891;SDS011;10108;50.142;8.724;2023-06-14T00:30:19;15.35;;;8.90;;
19891;SDS011;10108;50.142;8.724;2023-06-14T00:32:46;11.98;;;9.02;;
19891;SDS011;10108;50.142;8.724;2023-06-14T00:35:12;14.52;;;8.23;;
19891;SDS011;10108;50.142;8.724;2023-06-14T00:37:39;13.05;;;8.23;;
19891;SDS011;10108;50.142;8.724;2023-06-14T00:40:05;12.88;;;8.43;;
19891;SDS011;10108;50.142;8.724;2023-06-14T00:42:32;12.80;;;8.45;;
19891;SDS011;10108;50.142;8.724;2023-06-14T00:44:59;12.05;;;8.27;;
19891;SDS011;10108;50.142;8.724;2023-06-14T00:47:26;10.38;;;7.97;;
19891;SDS011;10108;50.142;8.724;2023-06-14T00:49:53;14.52;;;7.75;;
19891;SDS011;10108;50.142;8.724;2023-06-14T00:52:20;13.88;;;8.60;;
19891;SDS011;10108;50.142;8.724;2023-06-14T00:54:47;11.38;;;8.88;;
19891;SDS011;10108;50.142;8.724;2023-06-14T00:57:14;11.80;;;8.95;;
19891;SDS011;10108;50.142;8.724;2023-06-14T00:59:44;12.63;;;8.38;;
19891;SDS011;10108;50.142;8.724;2023-06-14T01:02:12;12.38;;;8.32;;
19891;SDS011;10108;50.142;8.724;2023-06-14T01:04:40;14.27;;;8.73;;
19891;SDS011;10108;50.142;8.724;2023-06-14T01:15:45;14.23;;;8.27;;
19891;SDS011;10108;50.142;8.724;2023-06-14T01:18:13;10.57;;;8.18;;
19891;SDS011;10108;50.142;8.724;2023-06-14T01:20:45;11.48;;;8.15;;
19891;SDS011;10108;50.142;8.724;2023-06-14T01:23:24;14.63;;;8.35;;
19891;SDS011;10108;50.142;8.724;2023-06-14T01:25:58;12.13;;;8.07;;
19891;SDS011;10108;50.142;8.724;2023-06-14T01:28:30;11.93;;;8.05;;
19891;SDS011;10108;50.142;8.724;2023-06-14T01:31:00;11.82;;;7.93;;
19891;SDS011;10108;50.142;8.724;2023-06-14T01:33:29;13.18;;;8.43;;
19891;SDS011;10108;50.142;8.724;2023-06-14T01:35:57;13.45;;;8.57;;
19891;SDS011;10108;50.142;8.724;2023-06-14T01:38:25;14.15;;;8.48;;
19891;SDS011;10108;50.142;8.724;2023-06-14T01:40:54;14.07;;;7.85;;
19891;SDS011;10108;50.142;8.724;2023-06-14T01:43:25;13.13;;;8.70;;
19891;SDS011;10108;50.142;8.724;2023-06-14T01:45:53;15.52;;;8.30;;
19891;SDS011;10108;50.142;8.724;2023-06-14T01:48:20;12.60;;;8.13;;
19891;SDS011;10108;50.142;8.724;2023-06-14T01:50:50;11.10;;;7.60;;
19891;SDS011;10108;50.142;8.724;2023-06-14T01:53:19;11.98;;;7.82;;
19891;SDS011;10108;50.142;8.724;2023-06-14T01:55:46;11.15;;;7.57;;
19891;SDS011;10108;50.142;8.724;2023-06-14T01:58:14;10.60;;;7.78;;
19891;SDS011;10108;50.142;8.724;2023-06-14T02:00:42;11.75;;;7.63;;
19891;SDS011;10108;50.142;8.724;2023-06-14T02:03:09;13.90;;;7.78;;
19891;SDS011;10108;50.142;8.724;2023-06-14T02:05:37;13.43;;;8.00;;
19891;SDS011;10108;50.142;8.724;2023-06-14T02:08:05;11.32;;;7.80;;
19891;SDS011;10108;50.142;8.724;2023-06-14T02:10:31;13.35;;;7.32;;
19891;SDS011;10108;50.142;8.724;2023-06-14T02:12:58;13.93;;;7.75;;
19891;SDS011;10108;50.142;8.724;2023-06-14T02:15:24;11.98;;;8.13;;
19891;SDS011;10108;50.142;8.724;2023-06-14T02:17:53;12.55;;;7.70;;
19891;SDS011;10108;50.142;8.724;2023-06-14T02:20:19;10.32;;;7.47;;
19891;SDS011;10108;50.142;8.724;2023-06-14T02:22:45;15.07;;;7.72;;
19891;SDS011;10108;50.142;8.724;2023-06-14T02:25:11;11.13;;;7.78;;
19891;SDS011;10108;50.142;8.724;2023-06-14T02:27:40;12.35;;;8.23;;
19891;SDS011;10108;50.142;8.724;2023-06-14T02:30:06;11.40;;;8.00;;
19891;SDS011;10108;50.142;8.724;2023-06-14T02:32:33;12.50;;;8.00;;
19891;SDS011;10108;50.142;8.724;2023-06-14T02:35:02;11.68;;;7.78;;
19891;SDS011;10108;50.142;8.724;2023-06-14T02:37:29;12.90;;;7.88;;
19891;SDS011;10108;50.142;8.724;2023-06-14T02:39:55;12.25;;;8.40;;
19891;SDS011;10108;50.142;8.724;2023-06-14T02:42:23;14.63;;;8.25;;
19891;SDS011;10108;50.142;8.724;2023-06-14T02:44:49;11.68;;;8.00;;
19891;SDS011;10108;50.142;8.724;2023-06-14T02:47:17;11.15;;;7.72;;
19891;SDS011;10108;50.142;8.724;2023-06-14T02:49:44;11.02;;;7.72;;
19891;SDS011;10108;50.142;8.724;2023-06-14T02:52:13;11.93;;;7.85;;
19891;SDS011;10108;50.142;8.724;2023-06-14T02:54:40;13.48;;;8.13;;
19891;SDS011;10108;50.142;8.724;2023-06-14T02:57:07;10.63;;;7.30;;
19891;SDS011;10108;50.142;8.724;2023-06-14T02:59:34;11.23;;;7.70;;
19891;SDS011;10108;50.142;8.724;2023-06-14T03:02:01;16.23;;;8.40;;
19891;SDS011;10108;50.142;8.724;2023-06-14T03:04:29;11.55;;;8.45;;
19891;SDS011;10108;50.142;8.724;2023-06-14T03:06:58;14.90;;;7.80;;
19891;SDS011;10108;50.142;8.724;2023-06-14T03:09:24;12.88;;;7.93;;
19891;SDS011;10108;50.142;8.724;2023-06-14T03:11:51;12.50;;;7.90;;
19891;SDS011;10108;50.142;8.724;2023-06-14T03:14:17;14.18;;;8.32;;
19891;SDS011;10108;50.142;8.724;2023-06-14T03:16:44;10.90;;;7.90;;
19891;SDS011;10108;50.142;8.724;2023-06-14T03:19:12;12.20;;;8.35;;
19891;SDS011;10108;50.142;8.724;2023-06-14T03:21:39;10.90;;;7.95;;
19891;SDS011;10108;50.142;8.724;2023-06-14T03:24:10;12.95;;;8.30;;
19891;SDS011;10108;50.142;8.724;2023-06-14T03:26:37;15.90;;;7.85;;
19891;SDS011;10108;50.142;8.724;2023-06-14T03:29:03;12.50;;;8.40;;
19891;SDS011;10108;50.142;8.724;2023-06-14T03:31:29;13.85;;;8.20;;
19891;SDS011;10108;50.142;8.724;2023-06-14T03:34:00;13.07;;;7.82;;
19891;SDS011;10108;50.142;8.724;2023-06-14T03:36:27;13.10;;;7.93;;
19891;SDS011;10108;50.142;8.724;2023-06-14T03:38:54;13.25;;;7.90;;
19891;SDS011;10108;50.142;8.724;2023-06-14T03:41:20;12.70;;;8.18;;
19891;SDS011;10108;50.142;8.724;2023-06-14T03:43:48;12.10;;;7.78;;
19891;SDS011;10108;50.142;8.724;2023-06-14T03:46:15;10.85;;;7.82;;
19891;SDS011;10108;50.142;8.724;2023-06-14T03:48:41;13.02;;;7.55;;
19891;SDS011;10108;50.142;8.724;2023-06-14T03:51:08;11.48;;;7.68;;
19891;SDS011;10108;50.142;8.724;2023-06-14T03:53:36;13.18;;;7.57;;
19891;SDS011;10108;50.142;8.724;2023-06-14T03:56:03;12.63;;;7.95;;
19891;SDS011;10108;50.142;8.724;2023-06-14T03:58:38;16.08;;;8.15;;
19891;SDS011;10108;50.142;8.724;2023-06-14T04:01:04;11.02;;;8.07;;
19891;SDS011;10108;50.142;8.724;2023-06-14T04:03:32;15.07;;;8.80;;
19891;SDS011;10108;50.142;8.724;2023-06-14T04:06:00;13.18;;;7.93;;
19891;SDS011;10108;50.142;8.724;2023-06-14T04:08:26;12.60;;;8.60;;
19891;SDS011;10108;50.142;8.724;2023-06-14T04:10:52;12.80;;;7.90;;
19891;SDS011;10108;50.142;8.724;2023-06-14T04:13:18;13.65;;;7.70;;
19891;SDS011;10108;50.142;8.724;2023-06-14T04:15:45;13.57;;;8.05;;
19891;SDS011;10108;50.142;8.724;2023-06-14T04:18:15;12.82;;;7.95;;
19891;SDS011;10108;50.142;8.724;2023-06-14T04:20:41;11.02;;;7.60;;
19891;SDS011;10108;50.142;8.724;2023-06-14T04:23:16;10.90;;;7.68;;
19891;SDS011;10108;50.142;8.724;2023-06-14T04:25:48;11.55;;;7.60;;
19891;SDS011;10108;50.142;8.724;2023-06-14T04:28:15;12.35;;;7.53;;
19891;SDS011;10108;50.142;8.724;2023-06-14T04:30:43;12.70;;;8.10;;
19891;SDS011;10108;50.142;8.724;2023-06-14T04:33:15;13.05;;;7.85;;
19891;SDS011;10108;50.142;8.724;2023-06-14T04:35:43;12.80;;;8.70;;
19891;SDS011;10108;50.142;8.724;2023-06-14T04:38:13;12.10;;;8.40;;
19891;SDS011;10108;50.142;8.724;2023-06-14T04:40:39;12.88;;;8.43;;
19891;SDS011;10108;50.142;8.724;2023-06-14T04:43:09;12.30;;;7.78;;
19891;SDS011;10108;50.142;8.724;2023-06-14T04:45:38;10.63;;;7.72;;
19891;SDS011;10108;50.142;8.724;2023-06-14T04:48:06;11.68;;;7.70;;
19891;SDS011;10108;50.142;8.724;2023-06-14T04:50:32;10.75;;;7.70;;
19891;SDS011;10108;50.142;8.724;2023-06-14T04:52:59;11.02;;;7.93;;
19891;SDS011;10108;50.142;8.724;2023-06-14T04:55:26;12.80;;;7.95;;
19891;SDS011;10108;50.142;8.724;2023-06-14T04:57:53;11.35;;;7.28;;
19891;SDS011;10108;50.142;8.724;2023-06-14T05:00:20;12.00;;;8.27;;
19891;SDS011;10108;50.142;8.724;2023-06-14T05:02:47;11.93;;;7.68;;
19891;SDS011;10108;50.142;8.724;2023-06-14T05:05:15;13.13;;;7.88;;
19891;SDS011;10108;50.142;8.724;2023-06-14T05:07:42;12.25;;;8.40;;
19891;SDS011;10108;50.142;8.724;2023-06-14T05:10:09;12.50;;;8.50;;
19891;SDS011;10108;50.142;8.724;2023-06-14T05:12:36;16.25;;;8.35;;
19891;SDS011;10108;50.142;8.724;2023-06-14T05:15:03;13.57;;;7.90;;
19891;SDS011;10108;50.142;8.724;2023-06-14T05:17:30;14.93;;;8.20;;
19891;SDS011;10108;50.142;8.724;2023-06-14T05:19:56;12.38;;;8.02;;
19891;SDS011;10108;50.142;8.724;2023-06-14T05:22:22;16.27;;;7.88;;
19891;SDS011;10108;50.142;8.724;2023-06-14T05:24:48;13.95;;;8.02;;
19891;SDS011;10108;50.142;8.724;2023-06-14T05:27:16;12.70;;;7.78;;
19891;SDS011;10108;50.142;8.724;2023-06-14T05:29:42;11.88;;;7.88;;
19891;SDS011;10108;50.142;8.724;2023-06-14T05:32:08;12.65;;;7.75;;
19891;SDS011;10108;50.142;8.724;2023-06-14T05:34:34;16.10;;;7.93;;
19891;SDS011;10108;50.142;8.724;2023-06-14T05:37:00;12.35;;;7.55;;
19891;SDS011;10108;50.142;8.724;2023-06-14T05:39:27;11.77;;;7.40;;
19891;SDS011;10108;50.142;8.724;2023-06-14T05:41:53;14.00;;;7.70;;
19891;SDS011;10108;50.142;8.724;2023-06-14T05:44:19;10.48;;;7.40;;
19891;SDS011;10108;50.142;8.724;2023-06-14T05:46:45;14.98;;;7.78;;
19891;SDS011;10108;50.142;8.724;2023-06-14T05:49:11;15.43;;;8.27;;
19891;SDS011;10108;50.142;8.724;2023-06-14T05:51:37;11.60;;;8.00;;
19891;SDS011;10108;50.142;8.724;2023-06-14T05:54:03;12.95;;;7.40;;
19891;SDS011;10108;50.142;8.724;2023-06-14T05:56:30;13.27;;;7.43;;
19891;SDS011;10108;50.142;8.724;2023-06-14T05:58:56;11.60;;;7.55;;
19891;SDS011;10108;50.142;8.724;2023-06-14T06:01:22;11.93;;;7.53;;
19891;SDS011;10108;50.142;8.724;2023-06-14T06:03:48;13.23;;;7.72;;
19891;SDS011;10108;50.142;8.724;2023-06-14T06:06:14;11.48;;;7.65;;
19891;SDS011;10108;50.142;8.724;2023-06-14T06:08:41;11.07;;;7.78;;
19891;SDS011;10108;50.142;8.724;2023-06-14T06:11:08;9.90;;;7.70;;
19891;SDS011;10108;50.142;8.724;2023-06-14T06:13:34;11.52;;;7.72;;
19891;SDS011;10108;50.142;8.724;2023-06-14T06:16:01;14.20;;;8.35;;
19891;SDS011;10108;50.142;8.724;2023-06-14T06:18:28;13.25;;;7.93;;
19891;SDS011;10108;50.142;8.724;2023-06-14T06:20:54;13.27;;;7.80;;
19891;SDS011;10108;50.142;8.724;2023-06-14T06:23:21;10.10;;;8.05;;
19891;SDS011;10108;50.142;8.724;2023-06-14T06:25:47;14.13;;;7.97;;
19891;SDS011;10108;50.142;8.724;2023-06-14T06:28:13;10.48;;;7.85;;
19891;SDS011;10108;50.142;8.724;2023-06-14T06:30:39;13.02;;;8.25;;
19891;SDS011;10108;50.142;8.724;2023-06-14T06:33:05;13.48;;;8.10;;
19891;SDS011;10108;50.142;8.724;2023-06-14T06:35:32;10.38;;;7.90;;
19891;SDS011;10108;50.142;8.724;2023-06-14T06:37:58;13.63;;;7.95;;
19891;SDS011;10108;50.142;8.724;2023-06-14T06:40:25;11.52;;;7.50;;
19891;SDS011;10108;50.142;8.724;2023-06-14T06:42:52;13.85;;;7.90;;
19891;SDS011;10108;50.142;8.724;2023-06-14T06:45:19;10.38;;;8.00;;
19891;SDS011;10108;50.142;8.724;2023-06-14T06:47:45;13.05;;;8.00;;
19891;SDS011;10108;50.142;8.724;2023-06-14T06:50:12;15.13;;;7.95;;
19891;SDS011;10108;50.142;8.724;2023-06-14T06:52:38;12.07;;;7.75;;
19891;SDS011;10108;50.142;8.724;2023-06-14T06:55:04;10.15;;;7.55;;
19891;SDS011;10108;50.142;8.724;2023-06-14T06:57:30;15.45;;;7.32;;
19891;SDS011;10108;50.142;8.724;2023-06-14T06:59:56;11.40;;;7.43;;
19891;SDS011;10108;50.142;8.724;2023-06-14T07:02:23;11.65;;;7.03;;
19891;SDS011;10108;50.142;8.724;2023-06-14T07:04:49;10.93;;;7.50;;
19891;SDS011;10108;50.142;8.724;2023-06-14T07:07:15;10.65;;;7.20;;
19891;SDS011;10108;50.142;8.724;2023-06-14T07:09:41;9.40;;;6.50;;
19891;SDS011;10108;50.142;8.724;2023-06-14T07:12:07;10.95;;;6.88;;
19891;SDS011;10108;50.142;8.724;2023-06-14T07:14:34;10.18;;;6.78;;
19891;SDS011;10108;50.142;8.724;2023-06-14T07:17:00;9.25;;;6.88;;
19891;SDS011;10108;50.142;8.724;2023-06-14T07:19:27;10.30;;;7.13;;
19891;SDS011;10108;50.142;8.724;2023-06-14T07:21:53;8.63;;;6.90;;
19891;SDS011;10108;50.142;8.724;2023-06-14T07:24:20;11.93;;;6.85;;
19891;SDS011;10108;50.142;8.724;2023-06-14T07:26:46;8.45;;;6.65;;
19891;SDS011;10108;50.142;8.724;2023-06-14T07:29:14;9.77;;;6.75;;
19891;SDS011;10108;50.142;8.724;2023-06-14T07:31:41;8.40;;;6.78;;
19891;SDS011;10108;50.142;8.724;2023-06-14T07:34:08;10.23;;;6.55;;
19891;SDS011;10108;50.142;8.724;2023-06-14T07:36:34;7.95;;;6.43;;
19891;SDS011;10108;50.142;8.724;2023-06-14T07:39:02;7.85;;;6.30;;
19891;SDS011;10108;50.142;8.724;2023-06-14T07:41:29;7.85;;;6.75;;
19891;SDS011;10108;50.142;8.724;2023-06-14T07:43:55;8.75;;;6.82;;
19891;SDS011;10108;50.142;8.724;2023-06-14T07:46:21;10.13;;;7.07;;
19891;SDS011;10108;50.142;8.724;2023-06-14T07:48:48;10.70;;;7.20;;
19891;SDS011;10108;50.142;8.724;2023-06-14T07:51:14;10.52;;;6.80;;
19891;SDS011;10108;50.142;8.724;2023-06-14T07:53:40;10.65;;;6.85;;
19891;SDS011;10108;50.142;8.724;2023-06-14T07:56:07;11.40;;;7.10;;
19891;SDS011;10108;50.142;8.724;2023-06-14T07:58:33;13.90;;;7.25;;
19891;SDS011;10108;50.142;8.724;2023-06-14T08:01:00;9.27;;;6.90;;
19891;SDS011;10108;50.142;8.724;2023-06-14T08:03:29;8.50;;;6.70;;
19891;SDS011;10108;50.142;8.724;2023-06-14T08:05:56;10.70;;;7.40;;
19891;SDS011;10108;50.142;8.724;2023-06-14T08:08:22;10.80;;;6.78;;
19891;SDS011;10108;50.142;8.724;2023-06-14T08:10:48;10.90;;;7.20;;
19891;SDS011;10108;50.142;8.724;2023-06-14T08:13:14;8.30;;;6.53;;
19891;SDS011;10108;50.142;8.724;2023-06-14T08:15:40;10.43;;;6.88;;
19891;SDS011;10108;50.142;8.724;2023-06-14T08:18:06;8.80;;;6.75;;
19891;SDS011;10108;50.142;8.724;2023-06-14T08:20:32;10.23;;;6.32;;
19891;SDS011;10108;50.142;8.724;2023-06-14T08:23:02;9.32;;;6.50;;
19891;SDS011;10108;50.142;8.724;2023-06-14T08:25:29;9.60;;;6.55;;
19891;SDS011;10108;50.142;8.724;2023-06-14T08:27:56;9.50;;;6.50;;
19891;SDS011;10108;50.142;8.724;2023-06-14T08:30:22;10.98;;;6.70;;
19891;SDS011;10108;50.142;8.724;2023-06-14T08:32:48;8.10;;;6.50;;
19891;SDS011;10108;50.142;8.724;2023-06-14T08:35:15;11.68;;;6.78;;
19891;SDS011;10108;50.142;8.724;2023-06-14T08:37:41;10.20;;;6.72;;
19891;SDS011;10108;50.142;8.724;2023-06-14T08:40:25;8.90;;;6.60;;
19891;SDS011;10108;50.142;8.724;2023-06-14T08:42:55;9.30;;;6.60;;
19891;SDS011;10108;50.142;8.724;2023-06-14T08:45:23;8.38;;;6.40;;
19891;SDS011;10108;50.142;8.724;2023-06-14T08:47:50;10.73;;;6.70;;
19891;SDS011;10108;50.142;8.724;2023-06-14T08:50:21;7.72;;;6.30;;
19891;SDS011;10108;50.142;8.724;2023-06-14T08:52:53;10.40;;;6.75;;
19891;SDS011;10108;50.142;8.724;2023-06-14T08:55:21;9.50;;;6.38;;
19891;SDS011;10108;50.142;8.724;2023-06-14T08:57:55;7.82;;;5.90;;
19891;SDS011;10108;50.142;8.724;2023-06-14T09:00:26;9.55;;;6.30;;
19891;SDS011;10108;50.142;8.724;2023-06-14T09:02:53;9.65;;;6.72;;
19891;SDS011;10108;50.142;8.724;2023-06-14T09:05:23;7.93;;;6.28;;
19891;SDS011;10108;50.142;8.724;2023-06-14T09:07:51;10.43;;;6.18;;
19891;SDS011;10108;50.142;8.724;2023-06-14T09:10:18;7.28;;;5.90;;
19891;SDS011;10108;50.142;8.724;2023-06-14T09:12:46;9.70;;;6.50;;
19891;SDS011;10108;50.142;8.724;2023-06-14T09:15:12;8.48;;;6.53;;
19891;SDS011;10108;50.142;8.724;2023-06-14T09:17:40;9.60;;;6.60;;
19891;SDS011;10108;50.142;8.724;2023-06-14T09:20:07;8.63;;;6.60;;
19891;SDS011;10108;50.142;8.724;2023-06-14T09:22:39;9.05;;;7.10;;
19891;SDS011;10108;50.142;8.724;2023-06-14T09:25:07;8.20;;;6.63;;
19891;SDS011;10108;50.142;8.724;2023-06-14T09:27:33;10.00;;;6.57;;
19891;SDS011;10108;50.142;8.724;2023-06-14T09:30:02;7.82;;;6.40;;
19891;SDS011;10108;50.142;8.724;2023-06-14T09:32:29;8.05;;;6.28;;
19891;SDS011;10108;50.142;8.724;2023-06-14T09:34:55;10.85;;;7.35;;
19891;SDS011;10108;50.142;8.724;2023-06-14T09:37:28;8.75;;;7.03;;
19891;SDS011;10108;50.142;8.724;2023-06-14T09:39:56;7.93;;;6.80;;
19891;SDS011;10108;50.142;8.724;2023-06-14T09:42:22;8.50;;;6.93;;
19891;SDS011;10108;50.142;8.724;2023-06-14T09:44:54;8.38;;;6.80;;
19891;SDS011;10108;50.142;8.724;2023-06-14T09:47:22;9.68;;;7.20;;
19891;SDS011;10108;50.142;8.724;2023-06-14T09:49:51;12.55;;;6.95;;
19891;SDS011;10108;50.142;8.724;2023-06-14T09:52:20;11.55;;;6.72;;
19891;SDS011;10108;50.142;8.724;2023-06-14T09:54:47;7.78;;;6.43;;
19891;SDS011;10108;50.142;8.724;2023-06-14T09:57:20;9.07;;;6.30;;
19891;SDS011;10108;50.142;8.724;2023-06-14T09:59:48;9.90;;;7.30;;
19891;SDS011;10108;50.142;8.724;2023-06-14T10:02:22;9.02;;;7.20;;
19891;SDS011;10108;50.142;8.724;2023-06-14T10:07:27;9.90;;;6.53;;
19891;SDS011;10108;50.142;8.724;2023-06-14T10:09:57;10.13;;;6.63;;
19891;SDS011;10108;50.142;8.724;2023-06-14T10:12:24;8.30;;;6.50;;
19891;SDS011;10108;50.142;8.724;2023-06-14T10:14:51;7.60;;;6.28;;
19891;SDS011;10108;50.142;8.724;2023-06-14T10:22:47;8.40;;;6.70;;
19891;SDS011;10108;50.142;8.724;2023-06-14T10:25:31;8.18;;;6.53;;
19891;SDS011;10108;50.142;8.724;2023-06-14T10:31:03;9.05;;;6.88;;
19891;SDS011;10108;50.142;8.724;2023-06-14T10:33:33;9.80;;;6.88;;
19891;SDS011;10108;50.142;8.724;2023-06-14T10:36:06;10.73;;;7.25;;
19891;SDS011;10108;50.142;8.724;2023-06-14T10:38:34;11.35;;;6.82;;
19891;SDS011;10108;50.142;8.724;2023-06-14T10:41:03;8.73;;;6.70;;
19891;SDS011;10108;50.142;8.724;2023-06-14T10:43:31;8.32;;;6.47;;
19891;SDS011;10108;50.142;8.724;2023-06-14T10:46:16;9.95;;;6.90;;
19891;SDS011;10108;50.142;8.724;2023-06-14T10:48:43;8.90;;;6.70;;
19891;SDS011;10108;50.142;8.724;2023-06-14T10:51:17;14.13;;;6.93;;
19891;SDS011;10108;50.142;8.724;2023-06-14T10:53:48;9.38;;;6.10;;
19891;SDS011;10108;50.142;8.724;2023-06-14T10:56:37;9.07;;;6.70;;
19891;SDS011;10108;50.142;8.724;2023-06-14T10:59:02;7.63;;;6.32;;
19891;SDS011;10108;50.142;8.724;2023-06-14T11:01:32;8.48;;;6.38;;
19891;SDS011;10108;50.142;8.724;2023-06-14T11:04:06;9.10;;;6.40;;
19891;SDS011;10108;50.142;8.724;2023-06-14T11:07:02;7.85;;;6.35;;
19891;SDS011;10108;50.142;8.724;2023-06-14T11:09:41;9.02;;;7.00;;
19891;SDS011;10108;50.142;8.724;2023-06-14T11:12:17;7.95;;;6.55;;
19891;SDS011;10108;50.142;8.724;2023-06-14T11:14:45;9.50;;;6.70;;
19891;SDS011;10108;50.142;8.724;2023-06-14T11:17:13;10.10;;;6.30;;
19891;SDS011;10108;50.142;8.724;2023-06-14T11:19:39;10.88;;;6.70;;
19891;SDS011;10108;50.142;8.724;2023-06-14T11:22:05;8.07;;;6.40;;
19891;SDS011;10108;50.142;8.724;2023-06-14T11:24:32;8.05;;;6.63;;
19891;SDS011;10108;50.142;8.724;2023-06-14T11:26:58;7.85;;;6.72;;
19891;SDS011;10108;50.142;8.724;2023-06-14T11:29:25;7.75;;;6.63;;
19891;SDS011;10108;50.142;8.724;2023-06-14T11:31:51;8.10;;;6.80;;
19891;SDS011;10108;50.142;8.724;2023-06-14T11:34:17;7.85;;;6.35;;
19891;SDS011;10108;50.142;8.724;2023-06-14T11:36:43;12.15;;;6.78;;
19891;SDS011;10108;50.142;8.724;2023-06-14T11:39:11;8.88;;;7.20;;
19891;SDS011;10108;50.142;8.724;2023-06-14T11:41:41;8.27;;;6.70;;
19891;SDS011;10108;50.142;8.724;2023-06-14T11:44:09;10.45;;;6.57;;
19891;SDS011;10108;50.142;8.724;2023-06-14T11:46:36;9.57;;;6.75;;
19891;SDS011;10108;50.142;8.724;2023-06-14T11:49:02;8.18;;;6.55;;
19891;SDS011;10108;50.142;8.724;2023-06-14T11:51:30;10.50;;;6.72;;
19891;SDS011;10108;50.142;8.724;2023-06-14T11:53:57;10.77;;;7.28;;
19891;SDS011;10108;50.142;8.724;2023-06-14T11:56:24;8.93;;;6.57;;
19891;SDS011;10108;50.142;8.724;2023-06-14T11:58:52;11.07;;;7.00;;
19891;SDS011;10108;50.142;8.724;2023-06-14T12:01:22;8.90;;;6.80;;
19891;SDS011;10108;50.142;8.724;2023-06-14T12:03:48;11.88;;;6.75;;
19891;SDS011;10108;50.142;8.724;2023-06-14T12:06:16;11.55;;;6.90;;
19891;SDS011;10108;50.142;8.724;2023-06-14T12:08:51;22.35;;;7.20;;
19891;SDS011;10108;50.142;8.724;2023-06-14T12:11:20;8.57;;;6.75;;
19891;SDS011;10108;50.142;8.724;2023-06-14T12:13:46;14.40;;;7.47;;
19891;SDS011;10108;50.142;8.724;2023-06-14T12:16:14;15.40;;;7.00;;
19891;SDS011;10108;50.142;8.724;2023-06-14T12:18:41;8.98;;;7.25;;
19891;SDS011;10108;50.142;8.724;2023-06-14T12:21:09;10.80;;;6.70;;
19891;SDS011;10108;50.142;8.724;2023-06-14T12:23:42;13.27;;;6.82;;
19891;SDS011;10108;50.142;8.724;2023-06-14T12:26:13;12.45;;;6.70;;
19891;SDS011;10108;50.142;8.724;2023-06-14T12:28:40;8.10;;;6.60;;
19891;SDS011;10108;50.142;8.724;2023-06-14T12:31:08;9.85;;;6.97;;
19891;SDS011;10108;50.142;8.724;2023-06-14T12:33:34;8.95;;;6.88;;
19891;SDS011;10108;50.142;8.724;2023-06-14T12:36:03;9.85;;;6.82;;
19891;SDS011;10108;50.142;8.724;2023-06-14T12:38:30;11.13;;;7.20;;
19891;SDS011;10108;50.142;8.724;2023-06-14T12:40:57;9.63;;;6.93;;
19891;SDS011;10108;50.142;8.724;2023-06-14T12:43:23;10.50;;;7.30;;
19891;SDS011;10108;50.142;8.724;2023-06-14T12:45:49;10.80;;;6.90;;
19891;SDS011;10108;50.142;8.724;2023-06-14T12:48:15;8.13;;;6.90;;
19891;SDS011;10108;50.142;8.724;2023-06-14T12:50:41;11.07;;;6.93;;
19891;SDS011;10108;50.142;8.724;2023-06-14T12:53:08;10.00;;;6.90;;
19891;SDS011;10108;50.142;8.724;2023-06-14T12:55:34;9.30;;;7.28;;
19891;SDS011;10108;50.142;8.724;2023-06-14T12:58:00;9.60;;;6.80;;
19891;SDS011;10108;50.142;8.724;2023-06-14T13:00:26;11.05;;;6.57;;
19891;SDS011;10108;50.142;8.724;2023-06-14T13:02:52;10.40;;;6.75;;
19891;SDS011;10108;50.142;8.724;2023-06-14T13:05:18;9.85;;;7.10;;
19891;SDS011;10108;50.142;8.724;2023-06-14T13:07:45;12.48;;;7.22;;
19891;SDS011;10108;50.142;8.724;2023-06-14T13:10:11;11.52;;;7.00;;
19891;SDS011;10108;50.142;8.724;2023-06-14T13:12:37;8.52;;;6.70;;
19891;SDS011;10108;50.142;8.724;2023-06-14T13:15:03;7.93;;;6.40;;
19891;SDS011;10108;50.142;8.724;2023-06-14T13:17:30;11.25;;;6.88;;
19891;SDS011;10108;50.142;8.724;2023-06-14T13:19:58;10.65;;;6.93;;
19891;SDS011;10108;50.142;8.724;2023-06-14T13:22:25;10.52;;;6.60;;
19891;SDS011;10108;50.142;8.724;2023-06-14T13:24:51;11.18;;;6.78;;
19891;SDS011;10108;50.142;8.724;2023-06-14T13:27:17;8.88;;;6.13;;
19891;SDS011;10108;50.142;8.724;2023-06-14T13:29:43;9.52;;;6.43;;
19891;SDS011;10108;50.142;8.724;2023-06-14T13:32:09;16.00;;;6.70;;
19891;SDS011;10108;50.142;8.724;2023-06-14T13:34:35;11.35;;;6.32;;
19891;SDS011;10108;50.142;8.724;2023-06-14T13:37:01;10.32;;;6.60;;
19891;SDS011;10108;50.142;8.724;2023-06-14T13:39:27;9.85;;;6.85;;
19891;SDS011;10108;50.142;8.724;2023-06-14T13:41:54;8.50;;;6.72;;
19891;SDS011;10108;50.142;8.724;2023-06-14T13:44:20;11.05;;;6.55;;
19891;SDS011;10108;50.142;8.724;2023-06-14T13:46:46;11.68;;;6.63;;
19891;SDS011;10108;50.142;8.724;2023-06-14T13:49:12;12.90;;;6.70;;
19891;SDS011;10108;50.142;8.724;2023-06-14T13:51:39;7.70;;;6.20;;
19891;SDS011;10108;50.142;8.724;2023-06-14T13:54:05;8.60;;;6.53;;
19891;SDS011;10108;50.142;8.724;2023-06-14T13:56:31;8.18;;;6.50;;
19891;SDS011;10108;50.142;8.724;2023-06-14T13:58:59;7.80;;;6.40;;
19891;SDS011;10108;50.142;8.724;2023-06-14T14:01:34;8.48;;;6.40;;
19891;SDS011;10108;50.142;8.724;2023-06-14T14:04:00;9.15;;;6.93;;
19891;SDS011;10108;50.142;8.724;2023-06-14T14:06:27;8.30;;;6.72;;
19891;SDS011;10108;50.142;8.724;2023-06-14T14:08:53;10.85;;;7.00;;
19891;SDS011;10108;50.142;8.724;2023-06-14T14:11:20;8.98;;;7.00;;
19891;SDS011;10108;50.142;8.724;2023-06-14T14:13:46;10.35;;;6.88;;
19891;SDS011;10108;50.142;8.724;2023-06-14T14:16:12;9.15;;;6.85;;
19891;SDS011;10108;50.142;8.724;2023-06-14T14:18:39;7.72;;;6.53;;
19891;SDS011;10108;50.142;8.724;2023-06-14T14:21:05;8.65;;;6.80;;
19891;SDS011;10108;50.142;8.724;2023-06-14T14:23:31;9.43;;;6.93;;
19891;SDS011;10108;50.142;8.724;2023-06-14T14:25:57;8.93;;;7.20;;
19891;SDS011;10108;50.142;8.724;2023-06-14T14:28:26;11.77;;;7.30;;
19891;SDS011;10108;50.142;8.724;2023-06-14T14:30:52;9.30;;;7.22;;
19891;SDS011;10108;50.142;8.724;2023-06-14T14:33:19;8.45;;;6.68;;
19891;SDS011;10108;50.142;8.724;2023-06-14T14:35:45;9.48;;;6.75;;
19891;SDS011;10108;50.142;8.724;2023-06-14T14:38:12;10.43;;;6.47;;
19891;SDS011;10108;50.142;8.724;2023-06-14T14:40:41;8.57;;;6.68;;
19891;SDS011;10108;50.142;8.724;2023-06-14T14:43:08;11.75;;;7.00;;
19891;SDS011;10108;50.142;8.724;2023-06-14T14:45:34;10.32;;;6.57;;
19891;SDS011;10108;50.142;8.724;2023-06-14T14:48:00;7.78;;;6.20;;
19891;SDS011;10108;50.142;8.724;2023-06-14T14:50:28;10.05;;;6.40;;
19891;SDS011;10108;50.142;8.724;2023-06-14T14:52:55;10.55;;;6.55;;
19891;SDS011;10108;50.142;8.724;2023-06-14T14:55:21;9.25;;;6.60;;
19891;SDS011;10108;50.142;8.724;2023-06-14T14:57:47;8.75;;;6.60;;
19891;SDS011;10108;50.142;8.724;2023-06-14T15:00:14;9.23;;;6.25;;